createdAt,value
2023-02-07T00:01:01.389Z,-0.16
2023-02-07T00:03:47.397Z,-0.14
2023-02-07T00:06:35.403Z,-0.17
2023-02-07T00:09:20.810Z,-0.21
2023-02-07T00:12:06.553Z,-0.24
2023-02-07T00:14:51.523Z,-0.26
2023-02-07T00:17:36.888Z,-0.25
2023-02-07T00:20:22.033Z,-0.24
2023-02-07T00:23:07.260Z,-0.23
2023-02-07T00:25:52.236Z,-0.27
2023-02-07T00:28:37.835Z,-0.36
2023-02-07T00:31:29.469Z,-0.46
2023-02-07T00:34:15.221Z,-0.51
2023-02-07T00:37:00.510Z,-0.55
2023-02-07T00:39:45.905Z,-0.55
2023-02-07T00:42:32.233Z,-0.53
2023-02-07T00:45:17.565Z,-0.48
2023-02-07T00:48:05.046Z,-0.46
2023-02-07T00:50:50.671Z,-0.46
2023-02-07T00:53:36.731Z,-0.49
2023-02-07T00:56:24.206Z,-0.48
2023-02-07T00:59:09.734Z,-0.45
2023-02-07T01:01:55.424Z,-0.44
2023-02-07T01:04:40.814Z,-0.46
2023-02-07T01:07:26.039Z,-0.43
2023-02-07T01:10:11.480Z,-0.42
2023-02-07T01:12:59.882Z,-0.44
2023-02-07T01:15:47.395Z,-0.44
2023-02-07T01:18:34.018Z,-0.41
2023-02-07T01:21:23.451Z,-0.41
2023-02-07T01:24:11.325Z,-0.42
2023-02-07T01:26:56.845Z,-0.43
2023-02-07T01:29:42.586Z,-0.51
2023-02-07T01:32:28.170Z,-0.51
2023-02-07T01:35:13.567Z,-0.58
2023-02-07T01:37:59.264Z,-0.61
2023-02-07T01:40:44.721Z,-0.67
2023-02-07T01:43:31.092Z,-0.73
2023-02-07T01:46:16.651Z,-0.87
2023-02-07T01:49:08.562Z,-0.87
2023-02-07T01:51:59.877Z,-0.67
2023-02-07T01:54:49.385Z,-0.65
2023-02-07T01:57:35.315Z,-0.61
2023-02-07T02:00:21.032Z,-0.60
2023-02-07T02:03:06.359Z,-0.61
2023-02-07T02:05:54.206Z,-0.61
2023-02-07T02:08:40.096Z,-0.60
2023-02-07T02:11:44.342Z,-0.59
2023-02-07T02:14:48.145Z,-0.62
2023-02-07T02:17:41.115Z,-0.58
2023-02-07T02:20:50.407Z,-0.61
2023-02-07T02:23:53.678Z,-0.63
2023-02-07T02:27:06.534Z,-0.70
2023-02-07T02:30:21.271Z,-0.70
2023-02-07T02:33:28.227Z,-0.70
2023-02-07T02:36:21.250Z,-0.72
2023-02-07T02:39:29.125Z,-0.69
2023-02-07T02:42:25.702Z,-0.73
2023-02-07T02:45:25.094Z,-0.74
2023-02-07T02:48:12.522Z,-0.72
2023-02-07T02:50:58.400Z,-0.71
2023-02-07T02:53:57.108Z,-0.70
2023-02-07T02:57:22.381Z,-0.65
2023-02-07T03:00:27.134Z,-0.64
2023-02-07T03:03:41.272Z,-0.63
2023-02-07T03:06:37.238Z,-0.69
2023-02-07T03:09:54.935Z,-0.74
2023-02-07T03:12:49.478Z,-0.80
2023-02-07T03:15:54.075Z,-0.82
2023-02-07T03:18:59.011Z,-0.84
2023-02-07T03:21:58.343Z,-0.87
2023-02-07T03:24:55.048Z,-0.84
2023-02-07T03:27:44.062Z,-0.86
2023-02-07T03:30:34.587Z,-0.85
2023-02-07T03:33:20.622Z,-0.89
2023-02-07T03:36:13.893Z,-0.93
2023-02-07T03:39:00.105Z,-0.97
2023-02-07T03:41:52.665Z,-1.06
2023-02-07T03:44:41.701Z,-1.11
2023-02-07T03:47:27.824Z,-1.08
2023-02-07T03:50:13.770Z,-1.06
2023-02-07T03:52:59.654Z,-1.09
2023-02-07T03:55:44.936Z,-1.06
2023-02-07T03:58:30.223Z,-1.02
2023-02-07T04:01:15.720Z,-1.03
2023-02-07T04:04:01.166Z,-1.09
2023-02-07T04:06:47.028Z,-1.22
2023-02-07T04:09:32.540Z,-1.43
2023-02-07T04:12:17.903Z,-1.61
2023-02-07T04:15:05.059Z,-1.76
2023-02-07T04:17:50.580Z,-1.85
2023-02-07T04:20:35.982Z,-1.89
2023-02-07T04:23:21.412Z,-1.93
2023-02-07T04:26:06.597Z,-1.92
2023-02-07T04:28:51.970Z,-1.90
2023-02-07T04:31:37.725Z,-1.93
2023-02-07T04:34:22.969Z,-1.82
2023-02-07T04:37:08.539Z,-1.72
2023-02-07T04:39:53.920Z,-1.64
2023-02-07T04:42:39.238Z,-1.65
2023-02-07T04:45:24.749Z,-1.60
2023-02-07T04:48:10.048Z,-1.53
2023-02-07T04:50:55.434Z,-1.46
2023-02-07T04:53:40.817Z,-1.41
2023-02-07T04:56:26.287Z,-1.38
2023-02-07T04:59:11.461Z,-1.37
2023-02-07T05:01:56.879Z,-1.31
2023-02-07T05:04:42.298Z,-1.33
2023-02-07T05:07:27.924Z,-1.43
2023-02-07T05:10:13.431Z,-1.36
2023-02-07T05:12:59.190Z,-1.35
2023-02-07T05:19:10.957Z,-1.46
2023-02-07T05:21:56.412Z,-1.48
2023-02-07T05:24:41.709Z,-1.48
2023-02-07T05:27:27.153Z,-1.56
2023-02-07T05:30:13.054Z,-1.53
2023-02-07T05:33:04.448Z,-1.50
2023-02-07T05:35:50.470Z,-1.47
2023-02-07T05:38:35.815Z,-1.44
2023-02-07T05:41:22.077Z,-1.37
2023-02-07T05:44:07.911Z,-1.33
2023-02-07T05:46:53.241Z,-1.40
2023-02-07T05:49:39.574Z,-1.47
2023-02-07T05:52:25.276Z,-1.45
2023-02-07T05:55:12.972Z,-1.51
2023-02-07T05:57:58.517Z,-1.50
2023-02-07T06:00:43.838Z,-1.47
2023-02-07T06:03:29.306Z,-1.48
2023-02-07T06:06:14.647Z,-1.45
2023-02-07T06:08:59.945Z,-1.50
2023-02-07T06:11:45.424Z,-1.55
2023-02-07T06:14:30.865Z,-1.59
2023-02-07T06:17:16.036Z,-1.59
2023-02-07T06:20:01.550Z,-1.60
2023-02-07T06:22:46.736Z,-1.66
2023-02-07T06:25:32.043Z,-1.70
2023-02-07T06:28:17.237Z,-1.74
2023-02-07T06:31:03.004Z,-1.75
2023-02-07T06:33:48.218Z,-1.80
2023-02-07T06:36:33.513Z,-1.82
2023-02-07T06:39:18.876Z,-1.77
2023-02-07T06:42:04.640Z,-1.79
2023-02-07T06:44:50.318Z,-1.81
2023-02-07T06:47:35.675Z,-1.82
2023-02-07T06:50:21.084Z,-1.82
2023-02-07T06:53:06.357Z,-1.82
2023-02-07T06:55:51.915Z,-1.74
2023-02-07T06:58:37.254Z,-1.73
2023-02-07T07:01:22.862Z,-1.71
2023-02-07T07:04:08.214Z,-1.72
2023-02-07T07:06:53.356Z,-1.65
2023-02-07T07:09:38.685Z,-1.61
2023-02-07T07:12:24.148Z,-1.62
2023-02-07T07:15:10.130Z,-1.56
2023-02-07T07:17:55.438Z,-1.54
2023-02-07T07:20:40.553Z,-1.51
2023-02-07T07:23:25.894Z,-1.44
2023-02-07T07:26:11.188Z,-1.42
2023-02-07T07:29:00.185Z,-1.36
2023-02-07T07:31:46.613Z,-1.30
2023-02-07T07:34:31.924Z,-1.27
2023-02-07T07:37:17.471Z,-1.24
2023-02-07T07:40:02.389Z,-1.24
2023-02-07T07:42:48.106Z,-1.26
2023-02-07T07:45:57.083Z,-1.25
2023-02-07T07:48:42.319Z,-1.24
2023-02-07T07:51:27.582Z,-1.15
2023-02-07T07:54:13.917Z,-1.08
2023-02-07T07:56:59.478Z,-0.97
2023-02-07T07:59:45.064Z,-0.86
2023-02-07T08:02:30.542Z,-0.77
2023-02-07T08:05:16.262Z,-0.75
2023-02-07T08:08:01.527Z,-0.70
2023-02-07T08:10:47.864Z,-0.65
2023-02-07T08:13:33.541Z,-0.56
2023-02-07T08:16:18.878Z,-0.53
2023-02-07T08:19:04.050Z,-0.45
2023-02-07T08:21:49.455Z,-0.39
2023-02-07T08:24:35.958Z,-0.34
2023-02-07T08:27:21.165Z,-0.26
2023-02-07T08:30:08.921Z,-0.19
2023-02-07T08:32:55.535Z,-0.12
2023-02-07T08:35:41.796Z,-0.10
2023-02-07T08:38:27.171Z,-0.01
2023-02-07T08:41:12.411Z,0.09
2023-02-07T08:43:57.622Z,0.20
2023-02-07T08:46:42.909Z,0.35
2023-02-07T08:49:28.328Z,0.47
2023-02-07T08:52:13.951Z,0.53
2023-02-07T08:54:59.277Z,0.57
2023-02-07T08:57:44.210Z,0.65
2023-02-07T09:00:29.545Z,0.73
2023-02-07T09:03:15.336Z,0.83
2023-02-07T09:06:00.911Z,0.95
2023-02-07T09:08:46.408Z,1.05
2023-02-07T09:11:32.015Z,1.20
2023-02-07T09:14:17.338Z,1.29
2023-02-07T09:17:03.431Z,1.31
2023-02-07T09:19:48.560Z,1.35
2023-02-07T09:22:54.015Z,1.42
2023-02-07T09:25:40.789Z,1.52
2023-02-07T09:28:27.429Z,1.60
2023-02-07T09:31:15.530Z,1.67
2023-02-07T09:34:02.670Z,1.76
2023-02-07T09:36:49.968Z,1.88
2023-02-07T09:39:38.855Z,2.19
2023-02-07T09:42:43.616Z,2.85
2023-02-07T09:45:38.743Z,3.05
2023-02-07T09:48:30.033Z,3.00
2023-02-07T09:51:19.277Z,2.84
2023-02-07T09:54:06.754Z,2.92
2023-02-07T09:56:56.450Z,2.96
2023-02-07T09:59:52.052Z,2.87
2023-02-07T10:02:46.088Z,2.96
2023-02-07T10:06:01.512Z,3.06
2023-02-07T10:08:54.279Z,3.17
2023-02-07T10:11:54.594Z,3.21
2023-02-07T10:14:54.148Z,3.21
2023-02-07T10:17:45.540Z,3.26
2023-02-07T10:20:37.416Z,3.28
2023-02-07T10:23:46.074Z,3.23
2023-02-07T10:26:45.131Z,3.21
2023-02-07T10:29:54.156Z,3.33
2023-02-07T10:32:40.142Z,3.68
2023-02-07T10:35:35.018Z,4.09
2023-02-07T10:38:20.372Z,4.51
2023-02-07T10:41:15.220Z,4.72
2023-02-07T10:44:00.701Z,5.02
2023-02-07T10:46:58.280Z,4.97
2023-02-07T10:49:46.878Z,4.74
2023-02-07T10:52:43.561Z,4.71
2023-02-07T10:55:41.400Z,4.85
2023-02-07T10:58:39.226Z,5.11
2023-02-07T11:01:30.901Z,5.28
2023-02-07T11:04:43.534Z,5.06
2023-02-07T11:07:36.781Z,4.73
2023-02-07T11:10:34.509Z,4.59
2023-02-07T11:13:28.831Z,4.36
2023-02-07T11:16:17.128Z,4.53
2023-02-07T11:19:07.589Z,4.78
2023-02-07T11:22:05.796Z,5.04
2023-02-07T11:24:54.016Z,5.15
2023-02-07T11:27:41.831Z,4.52
2023-02-07T11:30:28.977Z,4.35
2023-02-07T11:33:23.413Z,4.31
2023-02-07T11:36:18.787Z,4.35
2023-02-07T11:39:13.799Z,4.40
2023-02-07T11:42:01.329Z,4.41
2023-02-07T11:44:48.251Z,4.46
2023-02-07T11:47:34.549Z,4.53
2023-02-07T11:50:30.499Z,4.61
2023-02-07T11:53:24.689Z,4.55
2023-02-07T11:57:01.654Z,4.54
2023-02-07T11:59:58.445Z,4.60
2023-02-07T12:02:59.222Z,4.65
2023-02-07T12:05:50.097Z,4.83
2023-02-07T12:08:36.662Z,4.90
2023-02-07T12:11:27.030Z,4.90
2023-02-07T12:14:31.237Z,4.94
2023-02-07T12:17:24.678Z,5.03
2023-02-07T12:20:41.405Z,5.04
2023-02-07T12:23:45.293Z,5.04
2023-02-07T12:26:40.630Z,4.85
2023-02-07T12:30:13.959Z,4.70
2023-02-07T12:33:21.435Z,4.63
2023-02-07T12:36:19.838Z,4.50
2023-02-07T12:39:40.382Z,4.50
2023-02-07T12:42:45.053Z,4.65
2023-02-07T12:45:46.836Z,4.77
2023-02-07T12:49:09.722Z,4.77
2023-02-07T12:52:19.478Z,4.84
2023-02-07T12:55:20.447Z,4.87
2023-02-07T12:58:35.791Z,4.87
2023-02-07T13:01:45.755Z,4.84
2023-02-07T13:05:05.940Z,4.88
2023-02-07T13:08:00.532Z,4.85
2023-02-07T13:11:23.756Z,4.84
2023-02-07T13:14:11.912Z,4.80
2023-02-07T13:17:22.232Z,4.86
2023-02-07T13:20:20.036Z,4.74
2023-02-07T13:23:21.268Z,4.62
2023-02-07T13:26:16.710Z,4.55
2023-02-07T13:29:06.494Z,4.57
2023-02-07T13:31:57.288Z,4.70
2023-02-07T13:35:12.390Z,4.84
2023-02-07T13:38:42.303Z,4.92
2023-02-07T13:41:43.903Z,4.91
2023-02-07T13:44:39.462Z,4.88
2023-02-07T13:47:35.120Z,4.83
2023-02-07T13:50:42.333Z,4.80
2023-02-07T13:53:33.487Z,4.72
2023-02-07T13:56:49.973Z,4.69
2023-02-07T13:59:40.988Z,4.69
2023-02-07T14:02:27.766Z,4.64
2023-02-07T14:05:43.397Z,4.63
2023-02-07T14:08:28.953Z,4.65
2023-02-07T14:11:31.450Z,4.63
2023-02-07T14:14:31.882Z,4.59
2023-02-07T14:17:29.476Z,4.53
2023-02-07T14:20:38.498Z,4.47
2023-02-07T14:23:23.985Z,4.47
2023-02-07T14:26:43.730Z,4.49
2023-02-07T14:29:28.633Z,4.44
2023-02-07T14:32:17.021Z,4.32
2023-02-07T14:35:11.599Z,4.17
2023-02-07T14:38:13.678Z,4.18
2023-02-07T14:41:11.176Z,4.00
2023-02-07T14:44:09.238Z,3.92
2023-02-07T14:46:57.883Z,3.82
2023-02-07T14:49:46.545Z,3.70
2023-02-07T14:52:37.049Z,3.85
2023-02-07T14:55:31.311Z,4.02
2023-02-07T14:58:40.141Z,3.85
2023-02-07T15:01:26.007Z,3.74
2023-02-07T15:04:12.258Z,3.66
2023-02-07T15:06:59.820Z,3.64
2023-02-07T15:09:46.120Z,3.64
2023-02-07T15:12:31.443Z,3.62
2023-02-07T15:15:34.157Z,3.65
2023-02-07T15:18:21.894Z,3.56
2023-02-07T15:21:15.698Z,3.48
2023-02-07T15:24:18.403Z,3.46
2023-02-07T15:27:06.642Z,3.38
2023-02-07T15:29:59.541Z,3.31
2023-02-07T15:32:48.377Z,3.19
2023-02-07T15:35:39.371Z,3.06
2023-02-07T15:38:26.682Z,3.02
2023-02-07T15:41:11.778Z,2.96
2023-02-07T15:44:03.117Z,2.98
2023-02-07T15:47:05.398Z,3.03
2023-02-07T15:49:58.514Z,3.02
2023-02-07T15:52:55.739Z,3.00
2023-02-07T15:55:46.654Z,2.88
2023-02-07T15:58:35.641Z,2.84
2023-02-07T16:01:32.496Z,2.79
2023-02-07T16:04:17.838Z,2.71
2023-02-07T16:07:11.563Z,2.72
2023-02-07T16:10:16.005Z,2.73
2023-02-07T16:13:08.606Z,2.73
2023-02-07T16:15:57.137Z,2.74
2023-02-07T16:18:48.165Z,2.74
2023-02-07T16:21:33.757Z,2.71
2023-02-07T16:24:22.984Z,2.71
2023-02-07T16:27:16.138Z,2.71
2023-02-07T16:30:03.718Z,2.70
2023-02-07T16:32:49.791Z,2.68
2023-02-07T16:35:35.402Z,2.69
2023-02-07T16:38:20.639Z,2.66
2023-02-07T16:41:06.274Z,2.62
2023-02-07T16:43:51.805Z,2.59
2023-02-07T16:46:36.998Z,2.54
2023-02-07T16:49:24.849Z,2.52
2023-02-07T16:52:10.032Z,2.47
2023-02-07T16:54:55.148Z,2.43
2023-02-07T16:57:42.485Z,2.41
2023-02-07T17:00:27.808Z,2.41
2023-02-07T17:03:15.395Z,2.41
2023-02-07T17:06:00.929Z,2.37
2023-02-07T17:08:50.827Z,2.38
2023-02-07T17:11:35.999Z,2.38
2023-02-07T17:14:22.106Z,2.37
2023-02-07T17:17:07.341Z,2.36
2023-02-07T17:19:52.705Z,2.36
2023-02-07T17:22:37.888Z,2.35
2023-02-07T17:25:25.325Z,2.36
2023-02-07T17:28:13.260Z,2.41
2023-02-07T17:30:59.037Z,2.44
2023-02-07T17:33:44.237Z,2.44
2023-02-07T17:36:29.761Z,2.43
2023-02-07T17:39:16.539Z,2.46
2023-02-07T17:42:01.891Z,2.48
2023-02-07T17:44:47.145Z,2.50
2023-02-07T17:47:32.693Z,2.51
2023-02-07T17:50:21.086Z,2.49
2023-02-07T17:53:08.501Z,2.49
2023-02-07T17:55:53.888Z,2.47
2023-02-07T17:58:39.521Z,2.46
2023-02-07T18:01:24.913Z,2.46
2023-02-07T18:04:10.068Z,2.46
2023-02-07T18:06:56.164Z,2.49
2023-02-07T18:09:41.660Z,2.45
2023-02-07T18:12:26.838Z,2.40
2023-02-07T18:15:12.976Z,2.34
2023-02-07T18:17:58.650Z,2.32
2023-02-07T18:20:44.189Z,2.28
2023-02-07T18:23:30.019Z,2.27
2023-02-07T18:26:16.520Z,2.18
2023-02-07T18:29:01.725Z,2.14
2023-02-07T18:31:47.616Z,2.15
2023-02-07T18:34:33.831Z,2.14
2023-02-07T18:37:21.034Z,2.15
2023-02-07T18:40:07.903Z,2.16
2023-02-07T18:42:53.652Z,2.15
2023-02-07T18:45:42.062Z,2.13
2023-02-07T18:48:27.422Z,2.12
2023-02-07T18:51:15.121Z,2.11
2023-02-07T18:54:00.430Z,2.06
2023-02-07T18:56:52.008Z,2.06
2023-02-07T18:59:38.780Z,2.06
2023-02-07T19:02:25.648Z,2.03
2023-02-07T19:05:10.941Z,1.99
2023-02-07T19:07:56.327Z,1.98
2023-02-07T19:10:41.828Z,1.96
2023-02-07T19:13:28.266Z,1.94
2023-02-07T19:16:14.939Z,1.93
2023-02-07T19:19:03.193Z,1.90
2023-02-07T19:21:48.829Z,1.88
2023-02-07T19:24:33.880Z,1.88
2023-02-07T19:27:18.869Z,1.87
2023-02-07T19:30:04.353Z,1.84
2023-02-07T19:32:50.914Z,1.79
2023-02-07T19:35:36.405Z,1.75
2023-02-07T19:38:21.836Z,1.73
2023-02-07T19:41:07.952Z,1.70
2023-02-07T19:43:56.785Z,1.68
2023-02-07T19:46:44.285Z,1.66
2023-02-07T19:49:29.838Z,1.63
2023-02-07T19:52:17.747Z,1.61
2023-02-07T19:55:03.092Z,1.55
2023-02-07T19:57:48.342Z,1.56
2023-02-07T20:00:33.808Z,1.51
2023-02-07T20:03:18.936Z,1.47
2023-02-07T20:06:09.825Z,1.48
2023-02-07T20:08:57.539Z,1.51
2023-02-07T20:11:43.392Z,1.54
2023-02-07T20:14:29.215Z,1.51
2023-02-07T20:17:14.587Z,1.44
2023-02-07T20:20:01.368Z,1.45
2023-02-07T20:22:46.754Z,1.51
2023-02-07T20:25:34.890Z,1.51
2023-02-07T20:28:21.163Z,1.47
2023-02-07T20:31:08.060Z,1.49
2023-02-07T20:33:53.975Z,1.52
2023-02-07T20:36:43.703Z,1.53
2023-02-07T20:39:31.360Z,1.53
2023-02-07T20:42:16.700Z,1.53
2023-02-07T20:45:02.638Z,1.55
2023-02-07T20:47:47.857Z,1.56
2023-02-07T20:50:34.768Z,1.51
2023-02-07T20:53:20.238Z,1.43
2023-02-07T20:56:17.079Z,1.41
2023-02-07T20:59:02.315Z,1.42
2023-02-07T21:01:47.820Z,1.41
2023-02-07T21:04:34.730Z,1.39
2023-02-07T21:07:20.011Z,1.36
2023-02-07T21:10:06.045Z,1.34
2023-02-07T21:12:51.569Z,1.34
2023-02-07T21:15:36.706Z,1.32
2023-02-07T21:18:22.200Z,1.32
2023-02-07T21:21:08.212Z,1.31
2023-02-07T21:23:53.619Z,1.31
2023-02-07T21:26:39.931Z,1.32
2023-02-07T21:29:25.801Z,1.31
2023-02-07T21:32:11.062Z,1.28
2023-02-07T21:34:56.236Z,1.27
2023-02-07T21:37:41.785Z,1.28
2023-02-07T21:40:26.995Z,1.32
2023-02-07T21:43:12.600Z,1.30
2023-02-07T21:46:12.620Z,1.29
2023-02-07T21:49:04.310Z,1.29
2023-02-07T21:51:51.033Z,1.26
2023-02-07T21:54:36.891Z,1.23
2023-02-07T21:57:22.373Z,1.26
2023-02-07T22:00:08.231Z,1.28
2023-02-07T22:02:53.710Z,1.29
2023-02-07T22:05:38.974Z,1.31
2023-02-07T22:08:24.236Z,1.28
2023-02-07T22:11:11.560Z,1.26
2023-02-07T22:13:57.353Z,1.26
2023-02-07T22:16:43.409Z,1.26
2023-02-07T22:19:28.814Z,1.21
2023-02-07T22:22:13.904Z,1.16
2023-02-07T22:24:59.350Z,1.14
2023-02-07T22:27:44.640Z,1.15
2023-02-07T22:30:30.227Z,1.16
2023-02-07T22:33:15.370Z,1.19
2023-02-07T22:36:00.526Z,1.20
2023-02-07T22:38:46.461Z,1.18
2023-02-07T22:41:32.561Z,1.16
2023-02-07T22:44:17.955Z,1.13
2023-02-07T22:47:03.188Z,1.11
2023-02-07T22:49:48.334Z,1.07
2023-02-07T22:52:33.909Z,1.02
2023-02-07T22:55:19.303Z,1.00
2023-02-07T22:58:04.629Z,0.96
2023-02-07T23:00:49.954Z,0.91
2023-02-07T23:03:35.135Z,0.93
2023-02-07T23:06:21.521Z,0.86
2023-02-07T23:09:07.501Z,0.86
2023-02-07T23:11:52.983Z,0.89
2023-02-07T23:14:38.879Z,0.94
2023-02-07T23:17:24.363Z,0.92
2023-02-07T23:20:10.126Z,0.94
2023-02-07T23:22:55.660Z,0.95
2023-02-07T23:25:45.225Z,0.96
2023-02-07T23:28:30.718Z,1.00
2023-02-07T23:31:17.660Z,1.00
2023-02-07T23:34:02.873Z,1.02
2023-02-07T23:36:48.980Z,1.06
2023-02-07T23:39:34.102Z,1.01
2023-02-07T23:42:20.502Z,1.00
2023-02-07T23:45:06.151Z,1.01
2023-02-07T23:47:51.580Z,1.01
2023-02-07T23:50:37.040Z,0.98
2023-02-07T23:53:25.800Z,0.96
2023-02-07T23:56:16.844Z,0.98
2023-02-07T23:59:02.245Z,0.98
